LICA/SUF METAR and TAF weather

Enter ICAO airport designator
Station Type Date Time Source
LICA METAR 2021/07/30 23:20 UTC NOAA

LICA 302320Z AUTO VRB02KT 9999 FEW013/// 23/20 Q1012


Station Type Date Time Source
LICA Decoded METAR 2021/07/30 23:20 UTC NOAA

Lamezia Terme, Italy (LICA) 38-54N 016-15E
Jul 30, 2021 - 07:20 PM EDT / 2021.07.30 2320 UTC
Wind: Variable at 2 MPH (2 KT):0
Visibility: greater than 7 mile(s):0
Sky conditions: mostly clear
Temperature: 73 F (23 C)
Dew Point: 68 F (20 C)
Relative Humidity: 83%
Pressure (altimeter): 29.88 in. Hg (1012 hPa)
ob: LICA 302320Z AUTO VRB02KT 9999 FEW013/// 23/20 Q1012
cycle: 23

Station Type Date Time Source
LICA TAF 2021/07/30 18:21 UTC NOAA

TAF LICA 301700Z 3018/3118 25008KT CAVOK

Example: see airport list